Time;durP1;ratioP1;P1;durP2;ratioP2;P2;SDS_P1;SDS_P2;PMS_P1;PMS_P2;Temp;Humidity;BMP_temperature;BMP_pressure;BME280_temperature;BME280_humidity;BME280_pressure;Samples;Min_cycle;Max_cycle;Signal;HPM_P1;HPM_P2
2024/02/03 00:02:01;;;;;;;2.10;0.90;;;;;;;;;;5057054;28;20493;-56
2024/02/03 00:04:30;;;;;;;2.13;0.98;;;;;;;;;;5057959;28;20029;-52
2024/02/03 00:06:56;;;;;;;2.15;1.02;;;;;;;;;;5057080;28;20372;-53
2024/02/03 00:09:22;;;;;;;2.10;0.93;;;;;;;;;;5057435;28;20028;-51
2024/02/03 00:11:48;;;;;;;1.55;0.88;;;;;;;;;;5057398;28;20055;-54
2024/02/03 00:14:14;;;;;;;1.45;0.57;;;;;;;;;;5057498;28;20025;-50
2024/02/03 00:16:41;;;;;;;1.83;0.90;;;;;;;;;;5056942;28;20517;-54
2024/02/03 00:19:07;;;;;;;2.42;1.05;;;;;;;;;;5056885;28;20078;-56
2024/02/03 00:21:33;;;;;;;1.77;0.65;;;;;;;;;;5056864;28;20033;-55
2024/02/03 00:23:58;;;;;;;2.15;0.47;;;;;;;;;;5056818;28;20037;-55
2024/02/03 00:26:24;;;;;;;0.98;0.45;;;;;;;;;;5056727;28;20025;-54
2024/02/03 00:28:51;;;;;;;1.90;0.70;;;;;;;;;;5057244;28;20029;-53
2024/02/03 00:31:18;;;;;;;1.25;0.75;;;;;;;;;;5056926;28;20043;-55
2024/02/03 00:33:43;;;;;;;1.40;0.80;;;;;;;;;;5056626;28;20364;-53
2024/02/03 00:36:20;;;;;;;1.75;0.90;;;;;;;;;;5056509;28;20032;-55
2024/02/03 00:38:46;;;;;;;1.15;0.65;;;;;;;;;;5057199;28;20112;-53
2024/02/03 00:41:11;;;;;;;1.67;0.75;;;;;;;;;;5056472;28;20048;-51
2024/02/03 00:43:37;;;;;;;1.25;0.75;;;;;;;;;;5056561;28;20037;-54
2024/02/03 00:46:04;;;;;;;1.83;0.90;;;;;;;;;;5055287;28;20033;-55
2024/02/03 00:48:30;;;;;;;3.30;1.30;;;;;;;;;;5056489;28;20017;-55
2024/02/03 00:50:56;;;;;;;1.27;0.60;;;;;;;;;;5056297;28;20032;-54
2024/02/03 00:53:22;;;;;;;2.08;0.95;;;;;;;;;;5056319;28;20063;-55
2024/02/03 00:55:48;;;;;;;1.60;0.65;;;;;;;;;;5056551;28;20124;-52
2024/02/03 00:58:15;;;;;;;1.95;0.90;;;;;;;;;;5057021;28;20025;-54
2024/02/03 01:00:41;;;;;;;2.10;1.08;;;;;;;;;;5056135;28;20441;-52
2024/02/03 01:03:07;;;;;;;1.58;0.70;;;;;;;;;;5055916;28;20025;-55
2024/02/03 01:05:37;;;;;;;1.63;0.90;;;;;;;;;;5056088;28;20098;-53
2024/02/03 01:08:03;;;;;;;1.50;0.75;;;;;;;;;;5056623;28;20123;-51
2024/02/03 01:10:29;;;;;;;2.38;0.98;;;;;;;;;;5056285;28;20036;-51
2024/02/03 01:12:56;;;;;;;1.52;0.75;;;;;;;;;;5055921;28;20029;-56
2024/02/03 01:15:22;;;;;;;1.23;0.63;;;;;;;;;;5056560;28;20030;-50
2024/02/03 01:17:48;;;;;;;1.30;0.75;;;;;;;;;;5055902;28;20021;-56
2024/02/03 01:20:14;;;;;;;1.48;0.70;;;;;;;;;;5055996;28;20051;-55
2024/02/03 01:22:40;;;;;;;1.80;0.80;;;;;;;;;;5055776;28;20057;-53
2024/02/03 01:25:06;;;;;;;2.08;1.17;;;;;;;;;;5055737;28;20107;-53
2024/02/03 01:27:32;;;;;;;1.60;0.70;;;;;;;;;;5055752;28;20036;-53
2024/02/03 01:29:58;;;;;;;2.15;1.00;;;;;;;;;;5054409;28;20029;-52
2024/02/03 01:32:24;;;;;;;4.10;1.27;;;;;;;;;;5055580;28;20028;-54
2024/02/03 01:34:53;;;;;;;5.25;0.88;;;;;;;;;;5055814;28;20100;-52
2024/02/03 01:37:19;;;;;;;2.00;0.68;;;;;;;;;;5055741;28;20047;-53
2024/02/03 01:39:45;;;;;;;1.38;0.52;;;;;;;;;;5055551;28;20025;-51
2024/02/03 01:42:11;;;;;;;1.05;0.65;;;;;;;;;;5055668;28;20086;-55
2024/02/03 01:44:37;;;;;;;2.10;1.02;;;;;;;;;;5055877;28;20344;-54
2024/02/03 01:47:04;;;;;;;1.85;0.93;;;;;;;;;;5055587;28;20067;-53
2024/02/03 01:49:32;;;;;;;1.25;0.65;;;;;;;;;;5055282;28;20479;-55
2024/02/03 01:51:58;;;;;;;1.95;0.82;;;;;;;;;;5054962;28;20494;-53
2024/02/03 01:54:25;;;;;;;1.88;0.65;;;;;;;;;;5054965;28;20053;-53
2024/02/03 01:56:53;;;;;;;0.98;0.65;;;;;;;;;;5055290;28;20360;-55
2024/02/03 01:59:19;;;;;;;1.27;0.68;;;;;;;;;;5055675;28;20025;-53
2024/02/03 02:01:46;;;;;;;1.27;0.63;;;;;;;;;;5055751;28;20032;-54
2024/02/03 02:04:12;;;;;;;1.58;0.90;;;;;;;;;;5054941;28;20033;-54
2024/02/03 02:06:38;;;;;;;1.17;0.65;;;;;;;;;;5055165;28;20120;-55
2024/02/03 02:09:05;;;;;;;1.75;0.77;;;;;;;;;;5055388;28;20021;-51
2024/02/03 02:11:31;;;;;;;2.30;0.90;;;;;;;;;;5054745;28;20037;-50
2024/02/03 02:13:57;;;;;;;1.70;0.93;;;;;;;;;;5054673;28;20086;-51
2024/02/03 02:16:24;;;;;;;1.55;0.73;;;;;;;;;;5054666;28;20111;-52
2024/02/03 02:18:51;;;;;;;1.83;0.65;;;;;;;;;;5054951;28;20052;-52
2024/02/03 02:21:19;;;;;;;1.35;0.82;;;;;;;;;;5054858;28;20025;-54
2024/02/03 02:23:44;;;;;;;1.88;1.00;;;;;;;;;;5054519;28;20040;-54
2024/02/03 02:26:10;;;;;;;1.83;1.05;;;;;;;;;;5054557;28;20047;-53
2024/02/03 02:28:37;;;;;;;1.40;0.80;;;;;;;;;;5054921;28;20021;-53
2024/02/03 02:31:03;;;;;;;1.67;0.88;;;;;;;;;;5054954;28;20036;-54
2024/02/03 02:33:29;;;;;;;1.35;0.70;;;;;;;;;;5055223;28;20039;-55
2024/02/03 02:35:55;;;;;;;1.70;0.85;;;;;;;;;;5054904;28;20029;-55
2024/02/03 02:38:21;;;;;;;1.00;0.57;;;;;;;;;;5054961;28;20033;-55
2024/02/03 02:40:47;;;;;;;3.83;0.73;;;;;;;;;;5052766;28;20025;-56
2024/02/03 02:43:14;;;;;;;2.08;0.90;;;;;;;;;;5054651;28;20056;-56
2024/02/03 02:45:40;;;;;;;1.35;0.70;;;;;;;;;;5054991;28;20037;-55
2024/02/03 02:48:06;;;;;;;2.75;0.80;;;;;;;;;;5054487;28;20111;-55
2024/02/03 02:50:32;;;;;;;2.15;0.93;;;;;;;;;;5054360;28;20020;-55
2024/02/03 02:52:58;;;;;;;1.65;0.73;;;;;;;;;;5053743;28;20033;-55
2024/02/03 02:55:24;;;;;;;1.67;0.70;;;;;;;;;;5053926;28;20045;-54
2024/02/03 02:57:50;;;;;;;1.67;0.82;;;;;;;;;;5054572;28;20032;-55
2024/02/03 03:00:16;;;;;;;1.48;0.80;;;;;;;;;;5053641;28;20049;-54
2024/02/03 03:02:42;;;;;;;1.20;0.68;;;;;;;;;;5053867;28;20067;-52
2024/02/03 03:05:11;;;;;;;2.08;0.75;;;;;;;;;;5053832;28;20028;-55
2024/02/03 03:07:37;;;;;;;2.17;0.88;;;;;;;;;;5054153;28;20029;-53
2024/02/03 03:10:03;;;;;;;3.22;1.25;;;;;;;;;;5052733;28;20027;-54
2024/02/03 03:12:29;;;;;;;2.15;1.10;;;;;;;;;;5053736;28;20466;-53
2024/02/03 03:14:55;;;;;;;1.90;0.95;;;;;;;;;;5053721;28;20032;-56
2024/02/03 03:17:21;;;;;;;1.42;0.80;;;;;;;;;;5053687;28;20470;-54
2024/02/03 03:19:47;;;;;;;2.00;1.00;;;;;;;;;;5054180;28;20139;-52
2024/02/03 03:22:13;;;;;;;1.45;0.80;;;;;;;;;;5053528;28;20037;-54
2024/02/03 03:24:39;;;;;;;1.52;0.73;;;;;;;;;;5053922;28;20348;-54
2024/02/03 03:27:05;;;;;;;2.63;0.98;;;;;;;;;;5053599;28;20021;-54
2024/02/03 03:29:31;;;;;;;1.80;0.80;;;;;;;;;;5053689;28;20455;-54
2024/02/03 03:31:57;;;;;;;1.80;0.80;;;;;;;;;;5054094;28;20107;-55
2024/02/03 03:34:23;;;;;;;1.88;0.90;;;;;;;;;;5053619;28;20447;-55
2024/02/03 03:36:49;;;;;;;1.55;0.80;;;;;;;;;;5053587;28;20025;-50
2024/02/03 03:39:15;;;;;;;1.38;0.68;;;;;;;;;;5053511;28;20451;-55
2024/02/03 03:41:41;;;;;;;1.73;0.93;;;;;;;;;;5054001;28;20029;-51
2024/02/03 03:44:07;;;;;;;1.20;0.63;;;;;;;;;;5053727;28;20029;-52
2024/02/03 03:46:33;;;;;;;1.75;0.90;;;;;;;;;;5054014;28;20064;-54
2024/02/03 03:48:59;;;;;;;1.83;0.75;;;;;;;;;;5053227;28;20032;-52
2024/02/03 03:51:25;;;;;;;1.15;0.70;;;;;;;;;;5053436;28;20025;-53
2024/02/03 03:53:51;;;;;;;1.92;1.02;;;;;;;;;;5054164;28;20063;-52
2024/02/03 03:56:17;;;;;;;1.73;0.85;;;;;;;;;;5054300;28;20056;-54
2024/02/03 03:58:43;;;;;;;1.55;0.80;;;;;;;;;;5053369;28;20484;-51
2024/02/03 04:01:10;;;;;;;1.40;0.70;;;;;;;;;;5053747;28;20032;-52
2024/02/03 04:03:36;;;;;;;1.98;0.80;;;;;;;;;;5053281;28;20032;-54
2024/02/03 04:06:02;;;;;;;1.15;0.52;;;;;;;;;;5053212;28;20028;-54
2024/02/03 04:08:28;;;;;;;1.65;0.70;;;;;;;;;;5054047;28;20056;-55
2024/02/03 04:10:54;;;;;;;1.60;0.70;;;;;;;;;;5052926;28;20031;-55
2024/02/03 04:13:20;;;;;;;1.60;0.90;;;;;;;;;;5053217;28;20033;-52
2024/02/03 04:15:46;;;;;;;1.10;0.63;;;;;;;;;;5053067;28;20033;-51
2024/02/03 04:18:12;;;;;;;1.42;0.60;;;;;;;;;;5053993;28;20048;-49
2024/02/03 04:20:37;;;;;;;1.38;0.80;;;;;;;;;;5054761;28;20430;-55
2024/02/03 04:23:03;;;;;;;1.40;0.60;;;;;;;;;;5056815;28;20131;-52
2024/02/03 04:25:29;;;;;;;3.35;0.88;;;;;;;;;;5056556;28;20060;-51
2024/02/03 04:27:55;;;;;;;2.05;1.08;;;;;;;;;;5057109;28;20033;-54
2024/02/03 04:30:21;;;;;;;2.00;1.00;;;;;;;;;;5057280;28;20032;-53
2024/02/03 04:32:47;;;;;;;1.70;0.90;;;;;;;;;;5056370;28;20115;-52
2024/02/03 04:35:14;;;;;;;2.78;1.02;;;;;;;;;;5056429;28;20440;-51
2024/02/03 04:37:40;;;;;;;2.47;0.85;;;;;;;;;;5057185;28;20033;-54
2024/02/03 04:40:07;;;;;;;2.30;0.93;;;;;;;;;;5057026;28;20025;-54
2024/02/03 04:42:33;;;;;;;1.98;1.23;;;;;;;;;;5056344;28;20086;-55
2024/02/03 04:44:59;;;;;;;3.53;1.25;;;;;;;;;;5056961;28;20124;-51
2024/02/03 04:47:25;;;;;;;1.65;1.05;;;;;;;;;;5056649;28;20037;-51
2024/02/03 04:49:51;;;;;;;1.92;0.98;;;;;;;;;;5056392;28;20112;-51
2024/02/03 04:52:17;;;;;;;2.80;1.70;;;;;;;;;;5056338;28;20061;-53
2024/02/03 04:54:43;;;;;;;3.30;1.77;;;;;;;;;;5056292;28;20110;-50
2024/02/03 04:57:09;;;;;;;2.90;1.70;;;;;;;;;;5056289;28;20040;-54
2024/02/03 04:59:35;;;;;;;3.47;1.73;;;;;;;;;;5056702;28;20025;-52
2024/02/03 05:02:01;;;;;;;3.30;1.98;;;;;;;;;;5056005;28;20458;-55
2024/02/03 05:04:27;;;;;;;4.40;2.00;;;;;;;;;;5056255;28;20021;-54
2024/02/03 05:06:53;;;;;;;4.05;2.10;;;;;;;;;;5056011;28;20386;-51
2024/02/03 05:09:19;;;;;;;3.25;1.77;;;;;;;;;;5056265;28;20393;-50
2024/02/03 05:11:45;;;;;;;4.35;2.20;;;;;;;;;;5055880;28;20115;-49
2024/02/03 05:14:11;;;;;;;2.88;2.05;;;;;;;;;;5056191;28;20044;-49
2024/02/03 05:16:37;;;;;;;3.67;2.47;;;;;;;;;;5055781;28;20104;-50
2024/02/03 05:19:05;;;;;;;3.63;2.53;;;;;;;;;;5056391;28;20183;-53
2024/02/03 05:21:31;;;;;;;4.07;2.67;;;;;;;;;;5055780;28;20033;-49
2024/02/03 05:23:57;;;;;;;3.08;2.13;;;;;;;;;;5056244;28;20090;-50
2024/02/03 05:26:23;;;;;;;4.25;3.45;;;;;;;;;;5055490;28;20534;-49
2024/02/03 05:28:49;;;;;;;3.90;2.70;;;;;;;;;;5055790;28;20443;-55
2024/02/03 05:31:21;;;;;;;3.65;2.70;;;;;;;;;;5055840;28;20075;-54
2024/02/03 05:33:47;;;;;;;4.53;2.72;;;;;;;;;;5055531;28;20371;-55
2024/02/03 05:36:13;;;;;;;4.85;2.58;;;;;;;;;;5055501;28;20033;-54
2024/02/03 05:38:39;;;;;;;3.63;2.88;;;;;;;;;;5055767;28;20375;-49
2024/02/03 05:41:08;;;;;;;3.63;2.45;;;;;;;;;;5056065;28;20029;-53
2024/02/03 05:43:34;;;;;;;4.97;3.25;;;;;;;;;;5055836;28;20036;-55
2024/02/03 05:46:00;;;;;;;3.65;2.58;;;;;;;;;;5055333;28;20059;-52
2024/02/03 05:48:26;;;;;;;5.40;3.28;;;;;;;;;;5055883;28;20032;-49
2024/02/03 05:50:52;;;;;;;5.03;3.35;;;;;;;;;;5054918;28;20104;-54
2024/02/03 05:53:18;;;;;;;5.50;3.05;;;;;;;;;;5055499;28;20443;-53
2024/02/03 05:55:44;;;;;;;4.30;2.97;;;;;;;;;;5055184;28;20072;-50
2024/02/03 05:58:10;;;;;;;4.15;2.50;;;;;;;;;;5055424;28;20061;-52
2024/02/03 06:00:36;;;;;;;4.95;3.15;;;;;;;;;;5055377;28;20032;-52
2024/02/03 06:03:02;;;;;;;7.47;3.45;;;;;;;;;;5055174;28;20037;-49
2024/02/03 06:05:28;;;;;;;5.55;3.70;;;;;;;;;;5055007;28;20029;-52
2024/02/03 06:07:54;;;;;;;4.90;3.58;;;;;;;;;;5055569;28;20477;-50
2024/02/03 06:10:20;;;;;;;4.35;3.22;;;;;;;;;;5055028;28;20032;-51
2024/02/03 06:12:46;;;;;;;6.97;3.88;;;;;;;;;;5055348;28;20064;-49
2024/02/03 06:15:12;;;;;;;4.65;3.28;;;;;;;;;;5054744;28;20033;-49
2024/02/03 06:17:38;;;;;;;4.47;3.70;;;;;;;;;;5055309;28;20028;-50
2024/02/03 06:20:04;;;;;;;7.88;4.28;;;;;;;;;;5054692;28;20026;-51
2024/02/03 06:22:30;;;;;;;4.95;3.55;;;;;;;;;;5054616;28;20044;-49
2024/02/03 06:24:56;;;;;;;6.20;3.78;;;;;;;;;;5055177;28;20024;-53
2024/02/03 06:27:22;;;;;;;6.32;4.13;;;;;;;;;;5053462;28;20028;-51
2024/02/03 06:29:48;;;;;;;4.65;3.65;;;;;;;;;;5055388;28;20032;-54
2024/02/03 06:32:14;;;;;;;4.95;3.78;;;;;;;;;;5054411;28;20040;-49
2024/02/03 06:34:40;;;;;;;4.10;3.17;;;;;;;;;;5054381;28;20033;-52
2024/02/03 06:37:06;;;;;;;4.18;3.28;;;;;;;;;;5054305;28;20025;-51
2024/02/03 06:39:32;;;;;;;6.53;3.83;;;;;;;;;;5054516;28;20037;-53
2024/02/03 06:41:59;;;;;;;5.38;3.95;;;;;;;;;;5054263;28;20028;-53
2024/02/03 06:44:24;;;;;;;5.10;4.05;;;;;;;;;;5054252;28;20033;-51
2024/02/03 06:46:50;;;;;;;4.47;3.17;;;;;;;;;;5055082;28;20354;-55
2024/02/03 06:49:16;;;;;;;6.55;3.60;;;;;;;;;;5054144;28;20075;-55
2024/02/03 06:51:42;;;;;;;6.32;3.47;;;;;;;;;;5054280;28;20029;-53
2024/02/03 06:54:08;;;;;;;5.35;3.28;;;;;;;;;;5053664;28;20494;-55
2024/02/03 06:56:34;;;;;;;7.10;3.22;;;;;;;;;;5054406;28;20025;-52
2024/02/03 06:59:00;;;;;;;4.85;3.03;;;;;;;;;;5054538;28;20024;-51
2024/02/03 07:01:26;;;;;;;5.57;3.92;;;;;;;;;;5053755;28;20516;-55
2024/02/03 07:03:52;;;;;;;5.57;3.75;;;;;;;;;;5054390;28;20347;-51
2024/02/03 07:06:18;;;;;;;6.07;3.83;;;;;;;;;;5053797;28;20028;-52
2024/02/03 07:08:44;;;;;;;8.15;4.32;;;;;;;;;;5054731;28;20389;-56
2024/02/03 07:11:11;;;;;;;4.97;3.55;;;;;;;;;;5054015;28;20561;-54
2024/02/03 07:13:38;;;;;;;5.65;3.10;;;;;;;;;;5053942;28;20459;-51
2024/02/03 07:16:04;;;;;;;3.92;3.13;;;;;;;;;;5054204;28;20458;-54
2024/02/03 07:18:30;;;;;;;4.85;3.40;;;;;;;;;;5054046;28;20059;-53
2024/02/03 07:20:57;;;;;;;5.03;3.65;;;;;;;;;;5053458;28;20428;-55
2024/02/03 07:23:23;;;;;;;4.85;3.38;;;;;;;;;;5054209;28;20064;-55
2024/02/03 07:25:49;;;;;;;3.85;2.63;;;;;;;;;;5053936;28;20029;-53
2024/02/03 07:28:15;;;;;;;5.05;3.42;;;;;;;;;;5054177;28;20017;-50
2024/02/03 07:30:41;;;;;;;4.85;3.22;;;;;;;;;;5053846;28;20040;-50
2024/02/03 07:33:07;;;;;;;5.40;3.28;;;;;;;;;;5053418;28;20029;-49
2024/02/03 07:35:34;;;;;;;3.72;2.90;;;;;;;;;;5053738;28;20037;-52
2024/02/03 07:38:00;;;;;;;4.95;3.17;;;;;;;;;;5053823;28;20032;-53
2024/02/03 07:40:26;;;;;;;7.85;3.50;;;;;;;;;;5053412;28;20025;-50
2024/02/03 07:42:52;;;;;;;5.68;3.40;;;;;;;;;;5053376;28;20029;-51
2024/02/03 07:45:18;;;;;;;5.25;3.63;;;;;;;;;;5053971;28;20033;-54
2024/02/03 07:47:44;;;;;;;5.18;3.20;;;;;;;;;;5053453;28;20028;-53
2024/02/03 07:50:10;;;;;;;4.40;3.38;;;;;;;;;;5053899;28;20025;-51
2024/02/03 07:52:36;;;;;;;4.45;3.47;;;;;;;;;;5054225;28;20525;-53
2024/02/03 07:55:03;;;;;;;4.53;3.13;;;;;;;;;;5054315;28;20041;-51
2024/02/03 07:57:29;;;;;;;4.75;3.42;;;;;;;;;;5057199;28;20119;-56
2024/02/03 07:59:55;;;;;;;5.22;3.22;;;;;;;;;;5057264;28;20059;-49
2024/02/03 08:02:21;;;;;;;7.13;4.30;;;;;;;;;;5056989;28;20065;-54
2024/02/03 08:04:47;;;;;;;6.22;4.38;;;;;;;;;;5056787;28;20029;-54
2024/02/03 08:07:13;;;;;;;3.58;2.83;;;;;;;;;;5057114;28;20033;-52
2024/02/03 08:09:39;;;;;;;5.10;3.33;;;;;;;;;;5057427;28;20072;-54
2024/02/03 08:12:05;;;;;;;4.40;3.33;;;;;;;;;;5057120;28;20029;-55
2024/02/03 08:14:31;;;;;;;3.40;2.95;;;;;;;;;;5057081;28;20107;-55
2024/02/03 08:16:57;;;;;;;5.18;3.28;;;;;;;;;;5056902;28;20025;-53
2024/02/03 08:19:23;;;;;;;5.32;2.95;;;;;;;;;;5057826;28;20040;-53
2024/02/03 08:21:49;;;;;;;5.82;3.70;;;;;;;;;;5057261;28;20063;-52
2024/02/03 08:24:15;;;;;;;8.63;3.22;;;;;;;;;;5057253;28;20440;-53
2024/02/03 08:26:41;;;;;;;5.40;3.50;;;;;;;;;;5056656;28;20425;-55
2024/02/03 08:29:07;;;;;;;4.07;2.72;;;;;;;;;;5057624;28;20119;-54
2024/02/03 08:31:33;;;;;;;4.43;2.70;;;;;;;;;;5056649;28;20463;-53
2024/02/03 08:33:59;;;;;;;5.80;3.15;;;;;;;;;;5056954;28;20025;-56
2024/02/03 08:36:24;;;;;;;3.45;2.33;;;;;;;;;;5056555;28;20100;-52
2024/02/03 08:38:51;;;;;;;3.70;2.85;;;;;;;;;;5057089;28;20036;-57
2024/02/03 08:41:17;;;;;;;3.72;2.90;;;;;;;;;;5056542;28;20055;-53
2024/02/03 08:43:43;;;;;;;4.22;3.05;;;;;;;;;;5056165;28;20044;-51
2024/02/03 08:46:09;;;;;;;4.97;3.15;;;;;;;;;;5056460;28;20066;-54
2024/02/03 08:48:35;;;;;;;4.18;3.10;;;;;;;;;;5056850;28;20033;-56
2024/02/03 08:51:02;;;;;;;4.30;3.47;;;;;;;;;;5056314;28;20048;-56
2024/02/03 08:53:28;;;;;;;4.00;3.38;;;;;;;;;;5056791;28;20419;-56
2024/02/03 08:55:54;;;;;;;3.88;2.92;;;;;;;;;;5056278;28;20049;-56
2024/02/03 08:58:20;;;;;;;4.63;3.47;;;;;;;;;;5056839;28;20447;-56
2024/02/03 09:00:46;;;;;;;4.68;3.30;;;;;;;;;;5056432;28;20458;-55
2024/02/03 09:03:11;;;;;;;4.82;4.15;;;;;;;;;;5056607;28;20039;-56
2024/02/03 09:05:37;;;;;;;4.60;4.07;;;;;;;;;;5056117;28;20490;-55
2024/02/03 09:08:04;;;;;;;6.63;4.03;;;;;;;;;;5054857;28;20108;-57
2024/02/03 09:10:31;;;;;;;4.97;4.05;;;;;;;;;;5055635;28;20491;-56
2024/02/03 09:12:57;;;;;;;6.00;4.13;;;;;;;;;;5055935;28;20083;-51
2024/02/03 09:15:23;;;;;;;6.60;4.72;;;;;;;;;;5056170;28;20454;-49
2024/02/03 09:17:50;;;;;;;7.05;5.07;;;;;;;;;;5055887;28;20083;-56
2024/02/03 09:20:16;;;;;;;8.82;5.00;;;;;;;;;;5055937;28;20075;-54
2024/02/03 09:22:43;;;;;;;5.28;4.47;;;;;;;;;;5056007;28;20041;-56
2024/02/03 09:25:09;;;;;;;6.63;4.68;;;;;;;;;;5056187;28;20038;-55
2024/02/03 09:27:36;;;;;;;5.90;5.05;;;;;;;;;;5055660;28;20386;-54
2024/02/03 09:30:03;;;;;;;4.30;3.67;;;;;;;;;;5055508;28;20021;-56
2024/02/03 09:32:29;;;;;;;5.93;5.32;;;;;;;;;;5055508;28;20037;-53
2024/02/03 09:34:55;;;;;;;6.03;4.70;;;;;;;;;;5055933;28;20142;-55
2024/02/03 09:37:21;;;;;;;6.68;4.57;;;;;;;;;;5056111;28;20021;-54
2024/02/03 09:39:47;;;;;;;6.65;4.95;;;;;;;;;;5055611;28;20074;-54
2024/02/03 09:42:13;;;;;;;7.65;4.85;;;;;;;;;;5055609;28;20067;-54
2024/02/03 09:44:39;;;;;;;6.38;4.72;;;;;;;;;;5055225;28;20513;-55
2024/02/03 09:47:06;;;;;;;5.28;3.25;;;;;;;;;;5055939;28;20025;-57
2024/02/03 09:49:32;;;;;;;5.30;3.85;;;;;;;;;;5055430;28;20439;-56
2024/02/03 09:51:59;;;;;;;5.43;3.85;;;;;;;;;;5055121;28;20060;-57
2024/02/03 09:54:26;;;;;;;6.05;3.70;;;;;;;;;;5055541;28;20091;-58
2024/02/03 09:56:52;;;;;;;3.45;2.45;;;;;;;;;;5056014;28;20087;-56
2024/02/03 09:59:18;;;;;;;4.25;3.65;;;;;;;;;;5055176;28;20033;-57
2024/02/03 10:01:46;;;;;;;4.72;2.80;;;;;;;;;;5055153;28;20467;-57
2024/02/03 10:04:15;;;;;;;4.00;2.63;;;;;;;;;;5054943;28;20025;-57
2024/02/03 10:06:44;;;;;;;4.25;3.22;;;;;;;;;;5054637;28;20586;-57
2024/02/03 10:09:11;;;;;;;4.03;2.72;;;;;;;;;;5055750;28;20029;-57
2024/02/03 10:11:40;;;;;;;3.33;2.50;;;;;;;;;;5055338;28;20028;-56
2024/02/03 10:14:06;;;;;;;6.35;2.55;;;;;;;;;;5054978;28;20029;-55
2024/02/03 10:16:42;;;;;;;3.70;2.35;;;;;;;;;;5055090;28;20023;-57
2024/02/03 10:19:08;;;;;;;3.97;2.33;;;;;;;;;;5054648;28;20169;-56
2024/02/03 10:21:34;;;;;;;3.22;2.15;;;;;;;;;;5055040;28;20108;-56
2024/02/03 10:24:00;;;;;;;5.40;2.25;;;;;;;;;;5052855;28;20025;-57
2024/02/03 10:26:26;;;;;;;3.55;2.40;;;;;;;;;;5054477;28;20040;-57
2024/02/03 10:28:52;;;;;;;3.35;2.38;;;;;;;;;;5055108;28;20029;-56
2024/02/03 10:31:18;;;;;;;3.22;2.05;;;;;;;;;;5054961;28;20028;-54
2024/02/03 10:33:45;;;;;;;3.13;2.03;;;;;;;;;;5055180;28;20363;-57
2024/02/03 10:36:11;;;;;;;4.38;2.15;;;;;;;;;;5054912;28;20040;-55
2024/02/03 10:38:39;;;;;;;4.00;2.22;;;;;;;;;;5054817;28;20447;-55
2024/02/03 10:41:07;;;;;;;4.93;2.25;;;;;;;;;;5054721;28;20049;-55
2024/02/03 10:43:34;;;;;;;4.65;2.42;;;;;;;;;;5054122;28;20037;-54
2024/02/03 10:46:07;;;;;;;3.90;3.00;;;;;;;;;;5054283;28;20411;-55
2024/02/03 10:48:46;;;;;;;3.40;2.05;;;;;;;;;;5053993;28;20115;-57
2024/02/03 10:51:18;;;;;;;2.63;1.80;;;;;;;;;;5054663;28;20041;-57
2024/02/03 10:53:54;;;;;;;4.97;2.60;;;;;;;;;;5054031;28;20029;-57
2024/02/03 10:56:23;;;;;;;2.22;1.55;;;;;;;;;;5055203;28;20095;-55
2024/02/03 10:58:49;;;;;;;3.15;1.85;;;;;;;;;;5054442;28;20332;-57
2024/02/03 11:01:17;;;;;;;3.67;2.30;;;;;;;;;;5054516;28;20036;-56
2024/02/03 11:03:43;;;;;;;3.08;2.13;;;;;;;;;;5054355;28;20047;-57
2024/02/03 11:06:09;;;;;;;2.75;1.83;;;;;;;;;;5054077;28;20020;-55
2024/02/03 11:08:35;;;;;;;3.67;2.63;;;;;;;;;;5054416;28;20025;-55
2024/02/03 11:11:01;;;;;;;3.30;2.40;;;;;;;;;;5054446;28;20055;-56
2024/02/03 11:13:27;;;;;;;4.45;2.88;;;;;;;;;;5054440;28;20102;-57
2024/02/03 11:15:59;;;;;;;3.95;2.30;;;;;;;;;;5053383;28;20370;-55
2024/02/03 11:18:26;;;;;;;3.90;2.53;;;;;;;;;;5054081;28;20021;-56
2024/02/03 11:21:02;;;;;;;4.38;2.70;;;;;;;;;;5053525;28;20083;-57
2024/02/03 11:23:28;;;;;;;4.00;2.65;;;;;;;;;;5053670;28;20116;-54
2024/02/03 11:25:55;;;;;;;2.78;1.95;;;;;;;;;;5054508;28;20106;-57
2024/02/03 11:28:21;;;;;;;4.50;2.65;;;;;;;;;;5053786;28;20052;-54
2024/02/03 11:30:47;;;;;;;3.53;2.90;;;;;;;;;;5053385;28;20111;-56
2024/02/03 11:33:12;;;;;;;4.15;3.67;;;;;;;;;;5053285;28;20036;-57
2024/02/03 11:35:38;;;;;;;3.33;2.67;;;;;;;;;;5053273;28;20040;-58
2024/02/03 11:38:06;;;;;;;3.88;2.45;;;;;;;;;;5053740;28;20119;-58
2024/02/03 11:40:32;;;;;;;5.80;2.75;;;;;;;;;;5053988;28;20029;-57
2024/02/03 11:42:58;;;;;;;3.70;2.38;;;;;;;;;;5053906;28;20473;-57
2024/02/03 11:45:24;;;;;;;3.42;2.13;;;;;;;;;;5053964;28;20025;-57
2024/02/03 11:47:50;;;;;;;5.97;2.20;;;;;;;;;;5054063;28;20067;-56
2024/02/03 11:50:17;;;;;;;3.50;2.50;;;;;;;;;;5053366;28;20032;-57
2024/02/03 11:52:45;;;;;;;3.95;2.53;;;;;;;;;;5053053;28;20479;-57
2024/02/03 11:55:11;;;;;;;3.55;2.58;;;;;;;;;;5053187;28;20139;-57
2024/02/03 11:57:37;;;;;;;4.10;2.45;;;;;;;;;;5053881;28;20120;-56
2024/02/03 12:00:07;;;;;;;3.10;2.08;;;;;;;;;;5053581;28;20032;-57
2024/02/03 12:02:33;;;;;;;4.78;2.75;;;;;;;;;;5054049;28;20043;-57
2024/02/03 12:04:59;;;;;;;3.85;2.63;;;;;;;;;;5053355;28;20032;-56
2024/02/03 12:07:25;;;;;;;3.63;2.13;;;;;;;;;;5053217;28;20123;-56
2024/02/03 12:09:52;;;;;;;3.42;2.03;;;;;;;;;;5052361;28;20452;-57
2024/02/03 12:12:18;;;;;;;3.45;2.30;;;;;;;;;;5053795;28;20409;-55
2024/02/03 12:14:44;;;;;;;3.63;2.80;;;;;;;;;;5053443;28;20083;-56
2024/02/03 12:17:10;;;;;;;3.50;2.60;;;;;;;;;;5053154;28;20025;-56
2024/02/03 12:19:36;;;;;;;4.53;2.53;;;;;;;;;;5053919;28;20057;-54
2024/02/03 12:22:02;;;;;;;4.00;2.42;;;;;;;;;;5053007;28;20072;-56
2024/02/03 12:24:29;;;;;;;3.88;2.65;;;;;;;;;;5053608;28;20370;-56
2024/02/03 12:26:55;;;;;;;2.88;2.17;;;;;;;;;;5053068;28;20021;-59
2024/02/03 12:29:21;;;;;;;4.53;2.65;;;;;;;;;;5053506;28;20036;-59
2024/02/03 12:31:47;;;;;;;2.95;2.17;;;;;;;;;;5052922;28;20048;-59
2024/02/03 12:34:13;;;;;;;3.20;2.22;;;;;;;;;;5053451;28;20049;-59
2024/02/03 12:36:39;;;;;;;3.17;2.08;;;;;;;;;;5053225;28;20056;-59
2024/02/03 12:39:05;;;;;;;4.45;1.55;;;;;;;;;;5053489;28;20517;-59
2024/02/03 12:41:31;;;;;;;3.00;1.23;;;;;;;;;;5053926;28;20033;-59
2024/02/03 12:43:57;;;;;;;2.22;1.30;;;;;;;;;;5057204;28;20029;-59
2024/02/03 12:46:23;;;;;;;3.28;1.15;;;;;;;;;;5056677;28;20031;-59
2024/02/03 12:48:51;;;;;;;2.42;0.98;;;;;;;;;;5057291;28;20052;-59
2024/02/03 12:51:17;;;;;;;2.90;0.90;;;;;;;;;;5056613;28;20429;-59
2024/02/03 12:53:43;;;;;;;2.05;1.10;;;;;;;;;;5056597;28;20059;-59
2024/02/03 12:56:09;;;;;;;1.50;0.80;;;;;;;;;;5020970;28;1017455;-59
2024/02/03 12:58:35;;;;;;;1.73;1.00;;;;;;;;;;5056260;28;20451;-59
2024/02/03 13:01:01;;;;;;;1.65;0.90;;;;;;;;;;5056212;28;20104;-59
2024/02/03 13:03:26;;;;;;;1.20;0.68;;;;;;;;;;5056861;28;20120;-59
2024/02/03 13:05:52;;;;;;;1.30;0.60;;;;;;;;;;5056330;28;20025;-59
2024/02/03 13:08:19;;;;;;;1.35;0.45;;;;;;;;;;5056690;28;20444;-58
2024/02/03 13:10:45;;;;;;;1.27;0.50;;;;;;;;;;5056040;28;20025;-59
2024/02/03 13:13:11;;;;;;;1.25;0.57;;;;;;;;;;5056523;28;20028;-59
2024/02/03 13:15:37;;;;;;;1.02;0.47;;;;;;;;;;5055851;28;20017;-59
2024/02/03 13:18:04;;;;;;;0.80;0.38;;;;;;;;;;5056839;28;20021;-59
2024/02/03 13:20:30;;;;;;;0.25;0.17;;;;;;;;;;5056695;28;20028;-59
2024/02/03 13:22:56;;;;;;;0.80;0.35;;;;;;;;;;5056562;28;20355;-59
2024/02/03 13:25:22;;;;;;;0.80;0.43;;;;;;;;;;5056263;28;20025;-59
2024/02/03 13:27:49;;;;;;;1.17;0.40;;;;;;;;;;5056123;28;20082;-59
2024/02/03 13:30:15;;;;;;;0.45;0.22;;;;;;;;;;5055616;28;20017;-59
2024/02/03 13:32:44;;;;;;;2.63;0.50;;;;;;;;;;5056167;28;20036;-59
2024/02/03 13:35:10;;;;;;;0.47;0.20;;;;;;;;;;5056115;28;20021;-59
2024/02/03 13:37:39;;;;;;;0.40;0.20;;;;;;;;;;5055600;28;20035;-59
2024/02/03 13:40:06;;;;;;;0.03;0.00;;;;;;;;;;5055420;28;20033;-59
2024/02/03 13:42:32;;;;;;;0.50;0.20;;;;;;;;;;5055433;28;20037;-59
2024/02/03 13:45:01;;;;;;;0.85;0.30;;;;;;;;;;5056196;28;20432;-59
2024/02/03 13:47:27;;;;;;;0.10;0.10;;;;;;;;;;5055222;28;20028;-59
2024/02/03 13:49:53;;;;;;;0.38;0.20;;;;;;;;;;5055342;28;20021;-59
2024/02/03 13:52:19;;;;;;;0.40;0.20;;;;;;;;;;5055157;28;20368;-59
2024/02/03 13:54:46;;;;;;;0.50;0.20;;;;;;;;;;5054992;28;20450;-59
2024/02/03 13:57:12;;;;;;;0.50;0.28;;;;;;;;;;5055399;28;20032;-59
2024/02/03 13:59:38;;;;;;;1.13;0.50;;;;;;;;;;5055493;28;20024;-59
2024/02/03 14:02:04;;;;;;;2.42;0.50;;;;;;;;;;5055867;28;20340;-59
2024/02/03 14:04:30;;;;;;;0.30;0.10;;;;;;;;;;5055016;28;20028;-59
2024/02/03 14:06:59;;;;;;;0.70;0.17;;;;;;;;;;5054977;28;20035;-59
2024/02/03 14:09:25;;;;;;;0.65;0.20;;;;;;;;;;5054931;28;20036;-59
2024/02/03 14:11:51;;;;;;;0.40;0.20;;;;;;;;;;5055030;28;20040;-59
2024/02/03 14:14:17;;;;;;;0.38;0.20;;;;;;;;;;5054973;28;20025;-59
2024/02/03 14:16:43;;;;;;;0.20;0.10;;;;;;;;;;5054392;28;20056;-59
2024/02/03 14:19:09;;;;;;;0.30;0.10;;;;;;;;;;5055146;28;20033;-59
2024/02/03 14:21:35;;;;;;;0.45;0.20;;;;;;;;;;5054534;28;20425;-59
2024/02/03 14:24:01;;;;;;;0.45;0.20;;;;;;;;;;5055160;28;20025;-59
2024/02/03 14:26:27;;;;;;;1.88;1.08;;;;;;;;;;5055205;28;20086;-59
2024/02/03 14:28:53;;;;;;;1.60;0.60;;;;;;;;;;5054795;28;20051;-59
2024/02/03 14:31:19;;;;;;;1.02;0.30;;;;;;;;;;5054862;28;20032;-59
2024/02/03 14:33:45;;;;;;;2.58;0.60;;;;;;;;;;5054426;28;20028;-59
2024/02/03 14:36:11;;;;;;;0.10;0.10;;;;;;;;;;5054768;28;20029;-59
2024/02/03 14:38:37;;;;;;;1.23;0.20;;;;;;;;;;5055145;28;20021;-59